Time;durP1;ratioP1;P1;durP2;ratioP2;P2;SDS_P1;SDS_P2;PMS_P1;PMS_P2;Temp;Humidity;BMP_temperature;BMP_pressure;BME280_temperature;BME280_humidity;BME280_pressure;Samples;Min_cycle;Max_cycle;Signal;HPM_P1;HPM_P2
2022/08/02 00:02:22;;;;;;;12.55;4.78;;;13.80;99.90;;;;;;5091829;28;19924;-75
2022/08/02 00:04:48;;;;;;;10.43;4.72;;;13.30;99.90;;;;;;5092202;28;20079;-75
2022/08/02 00:07:14;;;;;;;16.35;5.10;;;13.10;99.90;;;;;;5092187;28;20073;-75
2022/08/02 00:09:41;;;;;;;12.88;5.43;;;12.90;99.90;;;;;;5092115;28;20052;-76
2022/08/02 00:12:07;;;;;;;12.63;5.80;;;12.80;99.90;;;;;;5092004;28;20127;-74
2022/08/02 00:14:33;;;;;;;11.55;4.70;;;12.70;99.90;;;;;;5090793;28;20052;-75
2022/08/02 00:16:58;;;;;;;13.45;5.63;;;12.90;99.90;;;;;;5091563;28;20051;-76
2022/08/02 00:19:24;;;;;;;12.88;5.70;;;13.00;99.90;;;;;;5092081;28;20036;-76
2022/08/02 00:21:50;;;;;;;15.70;5.20;;;13.00;99.90;;;;;;5091034;28;20062;-75
2022/08/02 00:24:15;;;;;;;7.88;4.50;;;12.80;99.90;;;;;;5090821;28;20040;-75
2022/08/02 00:26:41;;;;;;;13.15;5.50;;;12.80;99.90;;;;;;5092015;28;20177;-75
2022/08/02 00:29:07;;;;;;;15.40;5.15;;;13.70;99.90;;;;;;5073743;28;20098;-74
2022/08/02 00:31:33;;;;;;;12.30;5.25;;;12.30;99.90;;;;;;5091508;28;20047;-75
2022/08/02 00:33:59;;;;;;;12.00;5.57;;;13.40;99.90;;;;;;5091857;28;20506;-75
2022/08/02 00:36:25;;;;;;;13.18;5.55;;;12.90;99.90;;;;;;5090939;28;20059;-75
2022/08/02 00:38:51;;;;;;;16.58;5.30;;;12.40;99.90;;;;;;5091692;28;20063;-75
2022/08/02 00:41:19;;;;;;;10.55;5.72;;;13.10;99.90;;;;;;5091811;28;20036;-75
2022/08/02 00:43:46;;;;;;;16.40;5.68;;;12.80;99.90;;;;;;5090743;28;20051;-74
2022/08/02 00:46:12;;;;;;;12.70;5.70;;;12.60;99.90;;;;;;5090055;28;20480;-74
2022/08/02 00:48:38;;;;;;;14.05;6.07;;;12.60;99.90;;;;;;5090744;28;20051;-76
2022/08/02 00:51:04;;;;;;;11.90;5.95;;;12.60;99.90;;;;;;5092999;28;20052;-74
2022/08/02 00:53:30;;;;;;;14.38;5.47;;;12.70;99.90;;;;;;5095908;28;20122;-76
2022/08/02 00:55:56;;;;;;;12.55;5.57;;;12.60;99.90;;;;;;5095611;28;20058;-74
2022/08/02 00:58:21;;;;;;;14.93;5.97;;;12.50;99.90;;;;;;5094315;28;20040;-77
2022/08/02 01:00:47;;;;;;;13.60;5.28;;;12.70;99.90;;;;;;5094228;28;20787;-75
2022/08/02 01:03:13;;;;;;;13.63;4.95;;;12.40;99.90;;;;;;5095683;28;20081;-74
2022/08/02 01:05:39;;;;;;;10.05;5.18;;;13.30;99.90;;;;;;5095760;28;20466;-77
2022/08/02 01:08:05;;;;;;;13.52;5.88;;;12.50;99.90;;;;;;5095483;28;20131;-76
2022/08/02 01:10:30;;;;;;;12.52;5.60;;;12.50;99.90;;;;;;5095521;28;20130;-77
2022/08/02 01:12:56;;;;;;;10.68;5.35;;;12.60;99.90;;;;;;5095354;28;20107;-73
2022/08/02 01:15:23;;;;;;;13.88;4.95;;;13.00;99.90;;;;;;5095026;28;20044;-76
2022/08/02 01:18:04;;;;;;;15.15;5.35;;;12.50;99.90;;;;;;5095207;28;20548;-74
2022/08/02 01:20:49;;;;;;;13.45;5.05;;;12.90;99.90;;;;;;5095373;28;20044;-72
2022/08/02 01:23:34;;;;;;;10.80;4.53;;;13.60;99.90;;;;;;5095357;28;20054;-74
2022/08/02 01:26:18;;;;;;;13.68;5.18;;;12.90;99.90;;;;;;5093737;28;20460;-74
2022/08/02 01:29:00;;;;;;;14.45;6.22;;;12.80;99.90;;;;;;5093523;28;20105;-75
2022/08/02 01:31:33;;;;;;;14.25;5.50;;;13.30;99.90;;;;;;5095205;28;20055;-75
2022/08/02 01:34:23;;;;;;;13.43;5.13;;;12.90;99.90;;;;;;5095000;28;20052;-76
2022/08/02 01:37:06;;;;;;;11.63;5.10;;;12.50;99.90;;;;;;5094133;28;20550;-74
2022/08/02 01:39:35;;;;;;;16.42;6.40;;;12.70;99.90;;;;;;5093843;28;20511;-76
2022/08/02 01:42:01;;;;;;;18.20;5.15;;;12.70;99.90;;;;;;5093850;28;20048;-76
2022/08/02 01:44:32;;;;;;;13.38;5.07;;;13.70;99.90;;;;;;5093583;28;20078;-73
2022/08/02 01:47:05;;;;;;;18.67;5.65;;;12.60;99.90;;;;;;5095236;28;20058;-77
2022/08/02 01:49:33;;;;;;;10.70;4.63;;;12.30;99.90;;;;;;5077059;28;20044;-74
2022/08/02 01:55:08;;;;;;;17.17;5.15;;;12.50;99.90;;;;;;5094708;28;20052;-78
2022/08/02 01:57:40;;;;;;;12.35;4.70;;;13.30;99.90;;;;;;5093860;28;20055;-76
2022/08/02 02:00:08;;;;;;;14.80;5.30;;;12.50;99.90;;;;;;5094510;28;20036;-76
2022/08/02 02:02:36;;;;;;;12.48;4.47;;;12.50;99.90;;;;;;5094076;28;20613;-76
2022/08/02 02:05:02;;;;;;;14.63;4.72;;;12.50;99.90;;;;;;5094472;28;20052;-74
2022/08/02 02:07:32;;;;;;;11.60;4.38;;;12.70;99.90;;;;;;5094286;28;20052;-74
2022/08/02 02:09:59;;;;;;;16.33;4.93;;;13.20;99.90;;;;;;5094185;28;20059;-74
2022/08/02 02:12:27;;;;;;;12.35;4.72;;;13.50;99.90;;;;;;5094038;28;20134;-74
2022/08/02 02:14:54;;;;;;;12.27;4.97;;;12.60;99.90;;;;;;5094312;28;20496;-75
2022/08/02 02:17:23;;;;;;;11.77;4.70;;;12.40;99.90;;;;;;5094181;28;20143;-75
2022/08/02 02:19:52;;;;;;;20.30;5.45;;;12.10;99.90;;;;;;5094139;28;20431;-75
2022/08/02 02:22:17;;;;;;;12.45;4.70;;;12.30;99.90;;;;;;5093909;28;20131;-75
2022/08/02 02:24:43;;;;;;;9.85;4.47;;;12.40;99.90;;;;;;5093391;28;20128;-73
2022/08/02 02:27:12;;;;;;;14.15;4.80;;;12.50;99.90;;;;;;5093664;28;20139;-74
2022/08/02 02:29:46;;;;;;;12.80;4.70;;;12.30;99.90;;;;;;5093923;28;20075;-75
2022/08/02 02:32:14;;;;;;;13.25;4.63;;;12.50;99.90;;;;;;5093907;28;20052;-74
2022/08/02 02:34:43;;;;;;;10.93;4.43;;;12.60;99.90;;;;;;5093622;28;20098;-74
2022/08/02 02:37:16;;;;;;;9.27;4.28;;;12.40;99.90;;;;;;5093909;28;20131;-72
2022/08/02 02:39:44;;;;;;;8.13;3.95;;;12.30;99.90;;;;;;5093700;28;20127;-73
2022/08/02 02:42:13;;;;;;;10.05;4.28;;;14.60;99.90;;;;;;5093491;28;20083;-74
2022/08/02 02:44:39;;;;;;;16.02;5.30;;;12.40;99.90;;;;;;5093561;28;20058;-74
2022/08/02 02:47:07;;;;;;;9.18;4.05;;;12.50;99.90;;;;;;5092239;28;20131;-73
2022/08/02 02:49:35;;;;;;;13.30;4.40;;;12.40;99.90;;;;;;5093663;28;20044;-74
2022/08/02 02:52:04;;;;;;;9.57;4.70;;;12.40;99.90;;;;;;5093557;28;20126;-74
2022/08/02 02:54:32;;;;;;;13.23;4.90;;;12.30;99.90;;;;;;5093470;28;20059;-74
2022/08/02 02:56:59;;;;;;;11.80;5.00;;;12.60;99.90;;;;;;5092091;28;20056;-74
2022/08/02 02:59:26;;;;;;;18.40;4.53;;;13.20;99.90;;;;;;5093346;28;20112;-75
2022/08/02 03:01:52;;;;;;;11.15;5.10;;;12.40;99.90;;;;;;5093328;28;20052;-74
2022/08/02 03:04:19;;;;;;;11.00;5.15;;;12.80;99.90;;;;;;5092180;28;20148;-74
2022/08/02 03:06:45;;;;;;;16.77;5.20;;;12.40;99.90;;;;;;5093136;28;20096;-73
2022/08/02 03:09:12;;;;;;;19.98;5.10;;;12.40;99.90;;;;;;5075108;28;20076;-72
2022/08/02 03:11:39;;;;;;;14.25;5.05;;;12.60;99.90;;;;;;5092887;28;20113;-73
2022/08/02 03:14:09;;;;;;;15.02;5.00;;;12.50;99.90;;;;;;5092212;28;20097;-75
2022/08/02 03:16:45;;;;;;;10.98;5.10;;;12.50;99.90;;;;;;5091724;28;20108;-75
2022/08/02 03:19:11;;;;;;;11.90;5.72;;;12.80;99.90;;;;;;5093047;28;20088;-72
2022/08/02 03:21:36;;;;;;;9.88;5.13;;;12.40;99.90;;;;;;5093089;28;20087;-73
2022/08/02 03:24:02;;;;;;;14.70;5.22;;;12.30;99.90;;;;;;5092580;28;20488;-75
2022/08/02 03:26:28;;;;;;;10.35;5.43;;;12.10;99.90;;;;;;5091583;28;20047;-72
2022/08/02 03:28:54;;;;;;;11.73;5.53;;;13.20;99.90;;;;;;5092613;28;20621;-73
2022/08/02 03:31:19;;;;;;;12.30;6.40;;;12.40;99.90;;;;;;5074552;28;20067;-73
2022/08/02 03:33:45;;;;;;;13.18;5.63;;;12.30;99.90;;;;;;5075021;28;20416;-77
2022/08/02 03:36:13;;;;;;;;;;;13.60;99.90;;;;;;5093284;28;20048;-74
2022/08/02 03:38:40;;;;;;;11.20;5.97;;;12.50;99.90;;;;;;5091803;28;20284;-73
2022/08/02 03:41:09;;;;;;;9.60;5.90;;;12.40;99.90;;;;;;5092618;28;20160;-73
2022/08/02 03:43:37;;;;;;;15.68;6.55;;;12.30;99.90;;;;;;5092407;28;20051;-74
2022/08/02 03:46:03;;;;;;;12.95;6.15;;;12.30;99.90;;;;;;5092720;28;20047;-72
2022/08/02 03:48:31;;;;;;;13.93;5.70;;;12.30;99.90;;;;;;5074419;28;20040;-73
2022/08/02 03:50:58;;;;;;;14.60;6.25;;;12.60;99.90;;;;;;5092576;28;20103;-72
2022/08/02 03:53:24;;;;;;;13.90;6.28;;;12.50;99.90;;;;;;5091961;28;20087;-72
2022/08/02 03:55:50;;;;;;;15.23;6.10;;;12.30;99.90;;;;;;5092184;28;20054;-74
2022/08/02 03:58:21;;;;;;;12.93;5.78;;;12.00;99.90;;;;;;5092262;28;20043;-73
2022/08/02 04:00:47;;;;;;;13.27;5.82;;;12.10;99.90;;;;;;5092583;28;20404;-73
2022/08/02 04:03:14;;;;;;;12.32;5.57;;;12.50;99.90;;;;;;5092176;28;20445;-74
2022/08/02 04:05:41;;;;;;;10.75;6.30;;;13.40;99.90;;;;;;5092195;28;20448;-74
2022/08/02 04:08:06;;;;;;;12.60;6.15;;;12.50;99.90;;;;;;5091993;28;20052;-73
2022/08/02 04:11:29;;;;;;;18.20;6.03;;;12.50;99.90;;;;;;5091996;28;20522;-73
2022/08/02 04:13:24;;;;;;;10.68;6.10;;;13.10;99.90;;;;;;5091896;28;20577;-73
2022/08/02 04:15:56;;;;;;;12.93;5.47;;;12.10;99.90;;;;;;5092002;28;20043;-75
2022/08/02 04:18:28;;;;;;;13.00;6.20;;;13.00;99.90;;;;;;5092154;28;20089;-74
2022/08/02 04:20:55;;;;;;;18.65;6.18;;;13.40;99.90;;;;;;5090992;28;20055;-72
2022/08/02 04:23:24;;;;;;;15.70;5.63;;;12.40;99.90;;;;;;5091551;28;20059;-75
2022/08/02 04:25:50;;;;;;;15.20;6.13;;;12.20;99.90;;;;;;5091942;28;20040;-76
2022/08/02 04:28:16;;;;;;;15.25;6.22;;;12.60;99.90;;;;;;5073993;28;20392;-76
2022/08/02 04:30:42;;;;;;;15.82;6.53;;;12.60;99.90;;;;;;5091792;28;20052;-74
2022/08/02 04:33:09;;;;;;;16.80;5.88;;;14.10;99.90;;;;;;5091870;28;20131;-74
2022/08/02 04:35:35;;;;;;;13.57;6.00;;;12.40;99.90;;;;;;5124813;28;20073;-75
2022/08/02 04:38:01;;;;;;;8.98;5.85;;;12.60;99.90;;;;;;5091473;28;20144;-78
2022/08/02 04:40:26;;;;;;;;;;;12.50;99.90;;;;;;5092354;28;20055;-75
2022/08/02 04:42:52;;;;;;;15.30;5.97;;;14.00;99.90;;;;;;5091867;28;19920;-74
2022/08/02 04:45:20;;;;;;;16.23;5.82;;;12.70;99.90;;;;;;5091738;28;20067;-73
2022/08/02 04:47:46;;;;;;;10.60;5.78;;;12.70;99.90;;;;;;5091719;28;20055;-76
2022/08/02 04:50:11;;;;;;;10.63;5.82;;;12.40;99.90;;;;;;5091463;28;20388;-77
2022/08/02 04:52:37;;;;;;;14.18;5.20;;;12.90;99.90;;;;;;5091636;28;20396;-74
2022/08/02 04:55:03;;;;;;;11.02;5.28;;;12.60;99.90;;;;;;5091638;28;20062;-74
2022/08/02 05:00:13;;;;;;;15.85;6.22;;;13.20;99.90;;;;;;5091613;28;20047;-74
2022/08/02 05:02:39;;;;;;;;;;;13.50;99.90;;;;;;5091743;28;20131;-74
2022/08/02 05:05:05;;;;;;;13.65;6.15;;;13.30;99.90;;;;;;5091421;28;20076;-73
2022/08/02 05:07:31;;;;;;;16.50;5.30;;;13.30;99.90;;;;;;5091376;28;20063;-74
2022/08/02 05:09:56;;;;;;;10.77;5.32;;;13.50;99.90;;;;;;5090457;28;20408;-74
2022/08/02 05:12:23;;;;;;;18.15;5.20;;;13.50;99.90;;;;;;5091463;28;20062;-74
2022/08/02 05:14:48;;;;;;;14.45;5.30;;;13.50;99.90;;;;;;5091418;28;20080;-78
2022/08/02 05:17:14;;;;;;;13.82;5.53;;;13.50;99.90;;;;;;5124496;27;20500;-74
2022/08/02 05:19:40;;;;;;;17.40;5.93;;;13.90;99.90;;;;;;5091561;28;20037;-74
2022/08/02 05:22:06;;;;;;;;;;;13.70;99.90;;;;;;5091627;28;20091;-76
2022/08/02 05:24:32;;;;;;;12.43;5.03;;;13.70;99.90;;;;;;5091253;28;19963;-75
2022/08/02 05:26:57;;;;;;;17.15;5.07;;;14.20;99.90;;;;;;5091615;28;20476;-74
2022/08/02 05:29:23;;;;;;;10.30;5.38;;;13.80;99.90;;;;;;5090283;28;20056;-73
2022/08/02 05:31:49;;;;;;;10.30;5.10;;;13.70;99.90;;;;;;5073394;28;20051;-73
2022/08/02 05:34:14;;;;;;;18.40;6.60;;;13.90;99.90;;;;;;5091275;28;20048;-74
2022/08/02 05:36:40;;;;;;;11.18;5.32;;;13.90;99.90;;;;;;5091771;28;20043;-75
2022/08/02 05:39:06;;;;;;;13.98;5.45;;;13.80;99.90;;;;;;5089476;28;20036;-73
2022/08/02 05:41:32;;;;;;;15.82;6.90;;;14.00;99.90;;;;;;5092079;28;20043;-75
2022/08/02 05:43:58;;;;;;;18.80;6.15;;;14.20;99.90;;;;;;5092975;28;20075;-75
2022/08/02 05:46:23;;;;;;;13.05;5.43;;;13.90;99.90;;;;;;5092863;28;20071;-69
2022/08/02 05:48:49;;;;;;;15.02;6.10;;;14.00;99.90;;;;;;5093321;28;20044;-75
2022/08/02 05:51:25;;;;;;;12.27;5.45;;;14.00;99.90;;;;;;5091459;28;20047;-77
2022/08/02 05:54:00;;;;;;;15.52;5.55;;;14.10;99.90;;;;;;5092059;28;20564;-73
2022/08/02 05:57:05;;;;;;;9.30;4.75;;;14.30;99.90;;;;;;5075598;28;20108;-79
2022/08/02 05:59:57;;;;;;;9.75;5.10;;;14.30;99.90;;;;;;5092069;28;20416;-75
2022/08/02 06:02:42;;;;;;;12.35;5.45;;;14.70;99.90;;;;;;5091378;28;20082;-73
2022/08/02 06:05:20;;;;;;;14.77;5.57;;;14.90;99.90;;;;;;5089396;28;20052;-74
2022/08/02 06:07:47;;;;;;;13.13;5.13;;;14.80;99.90;;;;;;5089845;28;20040;-75
2022/08/02 06:10:16;;;;;;;17.80;5.00;;;15.20;99.90;;;;;;5093040;28;20044;-73
2022/08/02 06:12:50;;;;;;;11.32;5.10;;;15.40;99.90;;;;;;5092413;28;20483;-74
2022/08/02 06:15:18;;;;;;;12.15;5.32;;;15.40;99.90;;;;;;5089263;28;20044;-75
2022/08/02 06:17:45;;;;;;;17.88;5.88;;;15.80;99.90;;;;;;5091632;28;20059;-77
2022/08/02 06:20:12;;;;;;;16.88;5.60;;;15.90;99.90;;;;;;5088583;28;20032;-73
2022/08/02 06:22:42;;;;;;;9.70;4.80;;;15.90;99.90;;;;;;5091969;28;20055;-75
2022/08/02 06:25:08;;;;;;;9.98;4.70;;;15.90;99.90;;;;;;5091656;28;20130;-76
2022/08/02 06:27:35;;;;;;;15.60;4.70;;;15.90;99.90;;;;;;5092653;28;20125;-73
2022/08/02 06:30:05;;;;;;;8.48;4.38;;;16.30;99.90;;;;;;5091778;28;20071;-74
2022/08/02 06:32:32;;;;;;;15.73;4.90;;;16.30;99.90;;;;;;5091274;28;20584;-74
2022/08/02 06:34:58;;;;;;;10.20;5.32;;;16.00;99.90;;;;;;5092586;28;20047;-75
2022/08/02 06:37:49;;;;;;;10.07;4.57;;;16.60;99.90;;;;;;5092084;28;20054;-72
2022/08/02 06:40:25;;;;;;;13.45;4.40;;;16.10;99.90;;;;;;5088849;28;20063;-71
2022/08/02 06:43:17;;;;;;;10.23;4.40;;;16.60;99.90;;;;;;5091430;28;20105;-74
2022/08/02 06:45:43;;;;;;;12.98;5.05;;;16.10;99.90;;;;;;5088785;28;20062;-75
2022/08/02 06:48:09;;;;;;;;;;;16.50;99.90;;;;;;5091032;28;20044;-72
2022/08/02 06:50:40;;;;;;;11.07;4.40;;;16.50;99.90;;;;;;5092215;28;20382;-75
2022/08/02 06:53:07;;;;;;;13.23;4.85;;;16.80;99.90;;;;;;5084014;28;20040;-71
2022/08/02 06:55:33;;;;;;;12.57;5.10;;;17.10;99.90;;;;;;5091614;28;20047;-67
2022/08/02 06:57:59;;;;;;;;;;;16.90;99.90;;;;;;5092333;28;20040;-67
2022/08/02 07:00:25;;;;;;;13.40;4.15;;;17.30;99.90;;;;;;5086906;28;19970;-67
2022/08/02 07:02:50;;;;;;;;;;;17.00;99.90;;;;;;5090011;28;20123;-68
2022/08/02 07:05:16;;;;;;;9.63;3.40;;;17.10;99.90;;;;;;5087607;28;20361;-66
2022/08/02 07:07:42;;;;;;;;;;;17.40;99.90;;;;;;5089839;28;20094;-67
2022/08/02 07:10:08;;;;;;;6.45;3.45;;;17.30;99.90;;;;;;5090013;28;19924;-69
2022/08/02 07:12:34;;;;;;;;;;;17.50;99.90;;;;;;5088314;28;20044;-68
2022/08/02 07:15:01;;;;;;;9.55;2.80;;;17.60;99.90;;;;;;5088926;28;19980;-73
2022/08/02 07:17:28;;;;;;;6.40;2.70;;;17.70;99.90;;;;;;5089960;28;20704;-70
2022/08/02 07:19:54;;;;;;;10.10;2.80;;;17.90;99.90;;;;;;5092054;28;20044;-68
2022/08/02 07:22:22;;;;;;;;;;;18.40;99.90;;;;;;5090864;28;20079;-71
2022/08/02 07:24:48;;;;;;;4.18;2.10;;;18.40;99.90;;;;;;5091506;28;20454;-71
2022/08/02 07:27:14;;;;;;;11.38;3.45;;;18.70;99.90;;;;;;5087395;28;20056;-67
2022/08/02 07:29:40;;;;;;;;;;;18.50;99.90;;;;;;5090648;28;20071;-69
2022/08/02 07:32:06;;;;;;;9.57;2.80;;;18.50;99.90;;;;;;5089556;28;20383;-71
2022/08/02 07:34:32;;;;;;;10.15;2.72;;;18.70;99.90;;;;;;5091129;28;20117;-68
2022/08/02 07:36:57;;;;;;;;;;;18.90;99.90;;;;;;5088049;28;20499;-72
2022/08/02 07:39:24;;;;;;;5.97;2.05;;;19.10;99.90;;;;;;5090288;28;19931;-73
2022/08/02 07:41:50;;;;;;;4.15;2.42;;;19.50;99.90;;;;;;5089993;28;20052;-74
2022/08/02 07:44:17;;;;;;;10.23;1.98;;;19.30;99.90;;;;;;5088830;28;20127;-68
2022/08/02 07:46:44;;;;;;;5.15;1.90;;;19.70;99.90;;;;;;5090586;28;20075;-70
2022/08/02 07:49:10;;;;;;;4.03;1.88;;;19.70;99.90;;;;;;5090950;28;20052;-68
2022/08/02 07:51:35;;;;;;;;;;;19.70;99.90;;;;;;5091092;28;20185;-73
2022/08/02 07:54:01;;;;;;;4.90;1.73;;;19.90;99.90;;;;;;5090629;28;19920;-68
2022/08/02 07:56:27;;;;;;;8.15;2.22;;;20.20;99.90;;;;;;5085146;28;20040;-72
2022/08/02 07:58:53;;;;;;;6.72;2.30;;;20.20;99.90;;;;;;5089773;28;20808;-69
2022/08/02 08:01:19;;;;;;;4.05;1.70;;;20.20;99.90;;;;;;5090485;28;20058;-73
2022/08/02 08:03:45;;;;;;;5.82;1.80;;;20.60;99.90;;;;;;5091318;28;20043;-72
2022/08/02 08:06:10;;;;;;;2.30;1.38;;;20.80;99.90;;;;;;5090882;28;20059;-68
2022/08/02 08:08:36;;;;;;;2.88;1.48;;;20.80;99.90;;;;;;5092275;28;20108;-67
2022/08/02 08:11:02;;;;;;;2.13;1.30;;;20.90;99.90;;;;;;5091658;28;20074;-68
2022/08/02 08:13:28;;;;;;;2.58;1.38;;;21.10;99.90;;;;;;5091596;28;20040;-72
2022/08/02 08:15:53;;;;;;;4.35;1.50;;;21.10;99.90;;;;;;5102249;28;20052;-68
2022/08/02 08:18:20;;;;;;;9.68;1.65;;;20.90;99.90;;;;;;5111798;28;20047;-68
2022/08/02 08:20:46;;;;;;;3.63;1.50;;;21.10;99.90;;;;;;5111864;28;20507;-68
2022/08/02 08:23:12;;;;;;;4.15;1.30;;;21.00;99.90;;;;;;5112086;28;20054;-69
2022/08/02 08:25:38;;;;;;;9.48;1.80;;;21.30;99.90;;;;;;5112358;28;20510;-66
2022/08/02 08:28:04;;;;;;;6.78;1.40;;;21.00;99.90;;;;;;5091069;28;20052;-74
2022/08/02 08:30:29;;;;;;;4.05;1.30;;;21.30;99.90;;;;;;5088287;28;20059;-71
2022/08/02 08:32:55;;;;;;;3.40;1.40;;;21.60;99.90;;;;;;5072117;28;20101;-78
2022/08/02 08:35:21;;;;;;;3.85;1.48;;;21.70;99.90;;;;;;5088543;28;20048;-71
2022/08/02 08:37:47;;;;;;;8.13;1.85;;;21.90;99.90;;;;;;5090383;28;20091;-70
2022/08/02 08:40:13;;;;;;;3.60;1.30;;;21.70;99.90;;;;;;5090183;28;20084;-70
2022/08/02 08:42:39;;;;;;;2.58;1.20;;;21.50;99.90;;;;;;5089214;28;20066;-69
2022/08/02 08:45:06;;;;;;;2.08;1.20;;;21.90;99.90;;;;;;5088665;28;20044;-76
2022/08/02 08:47:37;;;;;;;4.68;1.52;;;21.40;99.90;;;;;;5089464;28;20118;-68
2022/08/02 08:50:10;;;;;;;4.13;1.52;;;21.70;99.90;;;;;;5068610;28;20105;-76
2022/08/02 08:52:47;;;;;;;2.50;1.35;;;21.90;99.90;;;;;;5085872;28;20087;-69
2022/08/02 08:55:14;;;;;;;7.45;1.55;;;22.00;99.90;;;;;;5095972;28;20046;-71
2022/08/02 08:57:41;;;;;;;2.95;1.20;;;22.20;99.90;;;;;;5111084;28;20075;-69
2022/08/02 09:00:09;;;;;;;3.50;1.27;;;22.10;99.90;;;;;;5109730;28;20437;-67
2022/08/02 09:02:35;;;;;;;1.85;1.27;;;22.50;99.90;;;;;;5086583;28;20416;-71
2022/08/02 09:05:01;;;;;;;2.42;1.50;;;22.20;99.90;;;;;;5088975;28;20434;-67
2022/08/02 09:07:27;;;;;;;3.83;1.30;;;22.70;99.90;;;;;;5089881;28;20044;-68
2022/08/02 09:09:53;;;;;;;2.25;1.40;;;22.60;99.90;;;;;;5091132;28;20036;-66
2022/08/02 09:12:23;;;;;;;2.60;1.20;;;22.70;99.90;;;;;;5106213;28;20435;-75
2022/08/02 09:14:49;;;;;;;3.45;1.55;;;22.70;99.90;;;;;;5097540;28;20048;-76
2022/08/02 09:17:15;;;;;;;4.32;1.42;;;23.10;99.90;;;;;;5095146;28;20114;-72
2022/08/02 09:19:41;;;;;;;6.30;1.48;;;23.00;99.90;;;;;;5095090;28;20552;-72
2022/08/02 09:22:08;;;;;;;4.55;1.42;;;23.10;99.90;;;;;;5095251;28;20048;-69
2022/08/02 09:24:46;;;;;;;2.58;1.30;;;23.30;99.90;;;;;;5094860;28;20048;-70
2022/08/02 09:27:17;;;;;;;4.15;1.33;;;23.50;99.90;;;;;;5095043;28;20048;-74
2022/08/02 09:29:47;;;;;;;1.88;1.50;;;23.70;99.90;;;;;;5085045;28;20091;-74
2022/08/02 09:32:15;;;;;;;7.68;2.35;;;23.20;99.90;;;;;;5092202;28;20054;-76
2022/08/02 09:34:49;;;;;;;5.97;1.75;;;23.70;99.90;;;;;;5089653;28;20056;-71
2022/08/02 09:37:29;;;;;;;3.92;1.50;;;23.50;99.90;;;;;;5092775;28;20109;-70
2022/08/02 09:39:56;;;;;;;3.50;1.75;;;23.10;99.90;;;;;;5091710;28;20039;-78
2022/08/02 09:42:21;;;;;;;2.92;1.50;;;22.40;99.90;;;;;;5091107;28;20059;-76
2022/08/02 09:44:58;;;;;;;4.97;1.75;;;23.00;99.90;;;;;;5092309;28;20048;-77
2022/08/02 09:47:25;;;;;;;5.75;2.15;;;23.00;99.90;;;;;;5091723;28;20091;-78
2022/08/02 09:49:52;;;;;;;4.05;1.90;;;23.40;99.90;;;;;;5092644;28;20470;-76
2022/08/02 09:52:25;;;;;;;5.13;2.00;;;23.60;99.90;;;;;;5091036;28;20434;-73
2022/08/02 09:54:50;;;;;;;4.38;1.95;;;23.90;99.90;;;;;;5089819;28;20094;-76
2022/08/02 09:57:28;;;;;;;6.18;2.00;;;23.60;99.90;;;;;;5092715;28;20080;-74
2022/08/02 09:59:55;;;;;;;5.47;2.10;;;23.40;99.90;;;;;;5089176;28;20127;-75
2022/08/02 10:02:21;;;;;;;3.90;2.17;;;23.20;99.90;;;;;;5088610;28;20063;-75
2022/08/02 10:04:47;;;;;;;6.10;2.67;;;23.00;99.90;;;;;;5092451;28;20052;-78
2022/08/02 10:07:13;;;;;;;7.10;2.15;;;23.40;99.90;;;;;;5075791;28;20046;-73
2022/08/02 10:09:40;;;;;;;5.72;2.22;;;23.60;99.90;;;;;;5094338;28;20047;-76
2022/08/02 10:12:06;;;;;;;5.63;2.25;;;23.90;99.90;;;;;;5092354;28;20056;-75
2022/08/02 10:14:35;;;;;;;4.35;1.90;;;23.90;99.90;;;;;;5093038;28;20044;-72
2022/08/02 10:17:02;;;;;;;4.00;2.47;;;24.30;99.90;;;;;;5094231;28;20097;-73
2022/08/02 10:19:28;;;;;;;4.85;2.40;;;24.50;99.90;;;;;;5093785;28;20567;-80
2022/08/02 10:22:05;;;;;;;4.85;2.10;;;24.90;99.90;;;;;;5093694;28;20135;-76
2022/08/02 10:24:35;;;;;;;8.23;2.40;;;25.10;99.90;;;;;;5092323;28;20048;-72
2022/08/02 10:27:02;;;;;;;5.63;2.30;;;24.90;99.90;;;;;;5092917;28;20063;-75
2022/08/02 10:29:38;;;;;;;6.38;2.80;;;25.50;99.90;;;;;;5075538;28;20467;-71
2022/08/02 10:32:11;;;;;;;7.78;3.00;;;25.30;99.90;;;;;;5093717;28;20051;-73
2022/08/02 10:34:45;;;;;;;7.88;3.22;;;25.60;99.90;;;;;;5093660;28;20099;-75
2022/08/02 10:37:13;;;;;;;8.63;3.90;;;25.20;99.90;;;;;;5093935;28;20144;-73
2022/08/02 10:39:44;;;;;;;7.38;3.10;;;24.80;99.90;;;;;;5093194;28;20110;-69
2022/08/02 10:42:11;;;;;;;8.27;3.20;;;25.10;99.90;;;;;;5093723;28;20399;-76
2022/08/02 10:44:37;;;;;;;5.68;3.70;;;24.70;99.90;;;;;;5093374;28;20345;-75
2022/08/02 10:47:23;;;;;;;7.07;3.92;;;24.70;99.90;;;;;;5092563;28;20063;-75
2022/08/02 10:49:57;;;;;;;8.50;4.20;;;24.40;99.90;;;;;;5093360;28;20069;-74
2022/08/02 10:52:24;;;;;;;10.18;4.35;;;24.80;99.90;;;;;;5093393;28;20051;-76
2022/08/02 10:54:57;;;;;;;8.77;3.65;;;24.60;99.90;;;;;;5092204;28;20060;-79
2022/08/02 10:57:25;;;;;;;7.05;3.60;;;24.50;99.90;;;;;;5092138;28;20083;-74
2022/08/02 10:59:57;;;;;;;6.32;3.80;;;24.50;99.90;;;;;;5093665;28;20048;-75
2022/08/02 11:02:32;;;;;;;6.88;3.22;;;24.80;99.90;;;;;;5093665;28;20047;-71
2022/08/02 11:05:04;;;;;;;5.15;3.55;;;24.60;99.90;;;;;;5092203;28;20048;-73
2022/08/02 11:07:33;;;;;;;9.15;3.83;;;24.90;99.90;;;;;;5093139;28;20122;-72
2022/08/02 11:10:25;;;;;;;6.15;3.67;;;24.80;99.90;;;;;;5092820;28;20047;-77
2022/08/02 11:13:15;;;;;;;9.40;3.97;;;25.00;99.90;;;;;;5091863;28;20055;-72
2022/08/02 11:15:46;;;;;;;7.13;3.75;;;24.90;99.90;;;;;;5092843;28;20521;-74
2022/08/02 11:18:12;;;;;;;5.55;3.47;;;24.20;99.90;;;;;;5092624;28;20051;-72
2022/08/02 11:20:38;;;;;;;5.80;3.80;;;23.90;99.90;;;;;;5091656;28;20131;-71
2022/08/02 11:23:39;;;;;;;8.00;3.72;;;24.20;99.90;;;;;;5092754;28;20051;-73
2022/08/02 11:26:29;;;;;;;4.90;3.63;;;24.00;99.90;;;;;;5092919;28;20044;-70
2022/08/02 11:28:57;;;;;;;5.22;3.25;;;24.00;99.90;;;;;;5092486;28;20503;-71
2022/08/02 11:31:22;;;;;;;12.07;4.05;;;24.40;99.90;;;;;;5092730;28;20062;-71
2022/08/02 11:33:49;;;;;;;8.13;4.50;;;24.30;99.90;;;;;;5091933;28;20040;-74
2022/08/02 11:36:16;;;;;;;8.32;4.35;;;24.20;99.90;;;;;;5092310;28;20518;-71
2022/08/02 11:38:42;;;;;;;7.38;4.18;;;24.40;99.90;;;;;;5090951;28;20054;-73
2022/08/02 11:41:08;;;;;;;5.50;3.70;;;24.30;99.90;;;;;;5092205;28;20048;-74
2022/08/02 11:43:35;;;;;;;9.05;3.60;;;24.30;99.90;;;;;;5092425;28;20176;-71
2022/08/02 11:46:10;;;;;;;8.80;5.13;;;24.40;99.90;;;;;;5092201;28;20048;-71
2022/08/02 11:48:39;;;;;;;16.77;5.85;;;24.20;99.90;;;;;;5091075;28;20396;-77
2022/08/02 11:51:10;;;;;;;8.60;5.30;;;24.20;99.90;;;;;;5092413;28;20048;-76
2022/08/02 11:53:56;;;;;;;9.60;5.20;;;24.00;99.90;;;;;;5091811;28;20066;-73
2022/08/02 11:56:27;;;;;;;8.47;4.80;;;23.90;99.90;;;;;;5091382;28;20399;-71
2022/08/02 11:59:02;;;;;;;9.98;6.53;;;23.80;99.90;;;;;;5092033;28;20499;-75
2022/08/02 12:01:30;;;;;;;11.93;6.75;;;23.90;99.90;;;;;;5092025;28;20047;-71
2022/08/02 12:03:59;;;;;;;11.90;7.03;;;23.50;99.90;;;;;;5092070;28;20071;-71
2022/08/02 12:06:27;;;;;;;11.13;7.13;;;23.70;99.90;;;;;;5091865;28;20051;-70
2022/08/02 12:08:59;;;;;;;11.73;7.57;;;23.50;99.90;;;;;;5091030;28;20050;-76
2022/08/02 12:11:24;;;;;;;11.63;7.13;;;23.60;99.90;;;;;;5091180;28;20412;-71
2022/08/02 12:13:50;;;;;;;15.48;7.22;;;23.40;99.90;;;;;;5090639;28;20048;-70
2022/08/02 12:19:18;;;;;;;12.77;7.82;;;23.80;99.90;;;;;;5092073;28;20048;-73
2022/08/02 12:21:45;;;;;;;13.65;8.57;;;23.20;99.90;;;;;;5090368;28;20475;-70
2022/08/02 12:24:11;;;;;;;10.48;7.70;;;23.50;99.90;;;;;;5091776;28;20066;-77
2022/08/02 12:26:44;;;;;;;14.38;8.18;;;23.30;99.90;;;;;;5091699;28;20079;-72
2022/08/02 12:29:10;;;;;;;12.43;8.70;;;23.10;99.90;;;;;;5091273;28;20071;-71
2022/08/02 12:31:46;;;;;;;12.40;8.57;;;23.20;99.90;;;;;;5091988;28;20408;-74
2022/08/02 12:34:19;;;;;;;9.93;8.45;;;23.40;99.90;;;;;;5091781;28;20054;-74
2022/08/02 12:37:00;;;;;;;15.85;9.82;;;23.00;99.90;;;;;;5090420;28;20043;-72
2022/08/02 12:39:44;;;;;;;16.17;11.00;;;22.90;99.90;;;;;;5091991;28;20104;-72
2022/08/02 12:42:14;;;;;;;15.93;11.18;;;22.90;99.90;;;;;;5091510;28;20434;-73
2022/08/02 12:44:54;;;;;;;16.13;11.02;;;22.70;99.90;;;;;;5091962;28;20039;-72
2022/08/02 12:47:20;;;;;;;19.35;12.35;;;22.70;99.90;;;;;;5096083;28;20044;-71
2022/08/02 12:50:07;;;;;;;19.48;10.88;;;22.60;99.90;;;;;;5095424;28;20051;-72
2022/08/02 12:52:32;;;;;;;13.95;11.23;;;22.80;99.90;;;;;;5095752;28;20105;-73
2022/08/02 12:54:58;;;;;;;17.50;11.23;;;22.70;99.90;;;;;;5094597;28;20518;-75
2022/08/02 12:57:24;;;;;;;16.52;12.75;;;22.90;99.90;;;;;;5095855;28;20392;-72
2022/08/02 12:59:52;;;;;;;20.08;11.88;;;22.80;99.90;;;;;;5095777;28;20101;-74
2022/08/02 13:02:18;;;;;;;16.65;12.63;;;22.80;99.90;;;;;;5094203;28;20109;-76